Time;durP1;ratioP1;P1;durP2;ratioP2;P2;SDS_P1;SDS_P2;PMS_P1;PMS_P2;Temp;Humidity;BMP_temperature;BMP_pressure;BME280_temperature;BME280_humidity;BME280_pressure;Samples;Min_cycle;Max_cycle;Signal;HPM_P1;HPM_P2
2021/09/12 00:00:31;;;;;;;3.90;3.70;;;23.30;39.70;;;;;;4933982;29;20278;-67
2021/09/12 00:02:57;;;;;;;4.00;3.77;;;23.30;39.80;;;;;;4934367;29;20240;-67
2021/09/12 00:05:23;;;;;;;3.57;3.37;;;23.30;39.80;;;;;;4934350;29;20184;-67
2021/09/12 00:07:48;;;;;;;3.83;3.53;;;23.30;39.70;;;;;;4934329;29;20546;-66
2021/09/12 00:10:15;;;;;;;4.03;3.73;;;23.30;39.70;;;;;;4933817;29;20176;-67
2021/09/12 00:12:41;;;;;;;3.70;3.40;;;23.30;39.80;;;;;;4934354;29;20191;-67
2021/09/12 00:15:09;;;;;;;3.87;3.57;;;23.30;39.70;;;;;;4936369;29;20412;-67
2021/09/12 00:17:34;;;;;;;3.97;3.70;;;23.30;39.60;;;;;;4937940;29;20250;-69
2021/09/12 00:20:00;;;;;;;3.33;3.13;;;23.30;39.70;;;;;;4937766;29;20922;-67
2021/09/12 00:22:26;;;;;;;3.60;3.40;;;23.30;39.70;;;;;;4937813;29;20214;-67
2021/09/12 00:24:52;;;;;;;4.30;3.90;;;23.30;39.70;;;;;;4937862;29;20180;-67
2021/09/12 00:27:17;;;;;;;3.57;3.37;;;23.30;39.70;;;;;;4937737;29;20199;-67
2021/09/12 00:29:43;;;;;;;3.50;3.30;;;23.30;39.60;;;;;;4937561;29;20293;-67
2021/09/12 00:32:08;;;;;;;4.60;4.20;;;23.30;39.60;;;;;;4937647;29;20204;-67
2021/09/12 00:34:34;;;;;;;3.80;3.60;;;23.30;39.70;;;;;;4937690;29;20180;-68
2021/09/12 00:36:59;;;;;;;3.50;3.30;;;23.20;39.60;;;;;;4937600;29;20624;-68
2021/09/12 00:39:25;;;;;;;9.23;4.23;;;23.20;39.60;;;;;;4937258;29;20320;-68
2021/09/12 00:41:50;;;;;;;3.53;3.20;;;23.30;39.60;;;;;;4937452;29;20223;-67
2021/09/12 00:44:16;;;;;;;3.40;3.20;;;23.30;39.70;;;;;;4937601;29;20188;-68
2021/09/12 00:46:44;;;;;;;4.20;3.90;;;23.20;39.70;;;;;;4937503;29;20183;-67
2021/09/12 00:49:10;;;;;;;3.70;3.40;;;23.20;39.70;;;;;;4937185;29;20184;-68
2021/09/12 00:51:36;;;;;;;3.83;3.53;;;23.20;39.60;;;;;;4937236;29;20451;-68
2021/09/12 00:54:05;;;;;;;6.90;3.33;;;23.20;39.70;;;;;;4937384;29;20462;-68
2021/09/12 00:56:34;;;;;;;4.23;3.60;;;23.20;39.70;;;;;;4937256;29;20822;-67
2021/09/12 00:59:01;;;;;;;4.60;4.20;;;23.20;39.70;;;;;;4937113;29;20946;-68
2021/09/12 01:01:27;;;;;;;3.30;3.10;;;23.20;39.60;;;;;;4936905;29;20479;-68
2021/09/12 01:03:53;;;;;;;3.43;3.23;;;23.20;39.60;;;;;;4937228;29;20420;-67
2021/09/12 01:06:19;;;;;;;4.07;3.77;;;23.20;39.60;;;;;;4937080;29;20184;-68
2021/09/12 01:08:45;;;;;;;3.40;3.20;;;23.20;39.60;;;;;;4936878;29;20478;-68
2021/09/12 01:11:11;;;;;;;3.37;3.17;;;23.20;39.60;;;;;;4936824;29;20455;-67
2021/09/12 01:13:41;;;;;;;3.57;3.30;;;23.20;39.60;;;;;;4937005;29;20215;-67
2021/09/12 01:16:16;;;;;;;3.70;3.47;;;23.20;39.50;;;;;;4936816;29;20506;-68
2021/09/12 01:18:43;;;;;;;3.07;2.87;;;23.20;39.50;;;;;;4936597;29;20419;-67
2021/09/12 01:21:19;;;;;;;4.10;3.67;;;23.20;39.40;;;;;;4936671;29;20464;-68
2021/09/12 01:23:46;;;;;;;3.80;3.60;;;23.20;39.40;;;;;;4936900;29;20420;-68
2021/09/12 01:26:12;;;;;;;3.83;3.63;;;23.20;39.40;;;;;;4935501;29;20483;-68
2021/09/12 01:28:41;;;;;;;3.83;3.40;;;23.20;39.40;;;;;;4936581;29;20953;-68
2021/09/12 01:31:07;;;;;;;3.93;3.63;;;23.20;39.50;;;;;;4936604;29;20431;-68
2021/09/12 01:33:33;;;;;;;3.33;3.10;;;23.20;39.50;;;;;;4936536;29;20487;-68
2021/09/12 01:35:58;;;;;;;3.57;3.37;;;23.20;39.40;;;;;;4936623;29;20263;-68
2021/09/12 01:38:24;;;;;;;3.70;3.50;;;23.20;39.40;;;;;;4936155;29;20172;-68
2021/09/12 01:40:49;;;;;;;4.00;3.67;;;23.20;39.40;;;;;;4936365;29;20208;-68
2021/09/12 01:43:20;;;;;;;4.07;3.87;;;23.20;39.40;;;;;;4936437;29;20524;-68
2021/09/12 01:45:45;;;;;;;3.90;3.60;;;23.20;39.40;;;;;;4936442;29;20181;-68
2021/09/12 01:48:11;;;;;;;3.83;3.53;;;23.20;39.40;;;;;;4936326;29;20416;-68
2021/09/12 01:50:36;;;;;;;4.40;4.00;;;23.10;39.30;;;;;;4936084;29;20196;-68
2021/09/12 01:53:02;;;;;;;3.90;3.70;;;23.20;39.30;;;;;;4936278;29;20176;-68
2021/09/12 01:55:28;;;;;;;3.73;3.53;;;23.20;39.30;;;;;;4936255;29;20184;-68
2021/09/12 01:57:53;;;;;;;3.63;3.43;;;23.10;39.20;;;;;;4936139;29;20640;-67
2021/09/12 02:00:19;;;;;;;3.33;3.13;;;23.10;39.10;;;;;;4935847;29;20188;-67
2021/09/12 02:02:44;;;;;;;3.20;3.00;;;23.10;39.10;;;;;;4935946;29;20212;-68
2021/09/12 02:05:10;;;;;;;3.70;3.50;;;23.10;39.00;;;;;;4936296;29;20182;-68
2021/09/12 02:07:36;;;;;;;3.67;3.37;;;23.10;39.00;;;;;;4935868;29;20176;-68
2021/09/12 02:10:01;;;;;;;3.40;3.20;;;23.10;38.90;;;;;;4935833;29;20184;-68
2021/09/12 02:12:27;;;;;;;3.10;3.00;;;23.10;38.90;;;;;;4936163;29;20686;-68
2021/09/12 02:14:52;;;;;;;3.00;2.80;;;23.10;38.80;;;;;;4935920;29;20230;-68
2021/09/12 02:17:18;;;;;;;4.00;3.70;;;23.10;38.90;;;;;;4935751;29;20216;-67
2021/09/12 02:19:44;;;;;;;3.00;2.80;;;23.10;38.90;;;;;;4935836;29;20179;-68
2021/09/12 02:22:09;;;;;;;3.37;3.17;;;23.10;38.90;;;;;;4935646;29;20962;-67
2021/09/12 02:24:35;;;;;;;3.20;3.00;;;23.10;38.90;;;;;;4935756;29;20237;-68
2021/09/12 02:27:01;;;;;;;3.83;3.63;;;23.10;38.90;;;;;;4935655;29;20180;-68
2021/09/12 02:29:27;;;;;;;4.10;3.20;;;23.10;38.90;;;;;;4935457;29;20966;-68
2021/09/12 02:31:53;;;;;;;3.63;3.43;;;23.10;38.90;;;;;;4935368;29;20608;-68
2021/09/12 02:34:18;;;;;;;4.97;3.30;;;23.10;38.90;;;;;;4935771;29;20239;-68
2021/09/12 02:36:45;;;;;;;3.47;3.20;;;23.10;38.80;;;;;;4935241;29;20428;-68
2021/09/12 02:39:10;;;;;;;4.90;4.60;;;23.10;38.80;;;;;;4935281;29;20176;-67
2021/09/12 02:41:36;;;;;;;3.50;3.23;;;23.10;38.90;;;;;;4935298;29;20466;-68
2021/09/12 02:44:01;;;;;;;4.07;3.77;;;23.10;39.00;;;;;;4935345;29;20180;-67
2021/09/12 02:46:27;;;;;;;3.77;3.47;;;23.10;38.90;;;;;;4935317;29;20691;-67
2021/09/12 02:48:52;;;;;;;3.70;3.50;;;23.10;38.90;;;;;;4935307;29;20225;-67
2021/09/12 02:51:18;;;;;;;3.60;3.30;;;23.10;38.80;;;;;;4935328;29;20200;-68
2021/09/12 02:53:43;;;;;;;3.57;3.37;;;23.10;38.80;;;;;;4935189;29;20177;-68
2021/09/12 02:56:09;;;;;;;3.90;3.70;;;23.10;38.80;;;;;;4935166;29;20176;-67
2021/09/12 02:58:34;;;;;;;3.60;3.40;;;23.00;38.70;;;;;;4934817;29;20191;-67
2021/09/12 03:01:00;;;;;;;3.33;3.13;;;23.00;38.60;;;;;;4934830;29;20226;-67
2021/09/12 03:03:25;;;;;;;3.20;2.97;;;23.10;38.70;;;;;;4935080;29;20540;-67
2021/09/12 03:05:51;;;;;;;3.27;3.07;;;23.00;38.70;;;;;;4935033;29;20172;-67
2021/09/12 03:08:17;;;;;;;3.10;2.90;;;23.00;38.70;;;;;;4934994;29;20199;-67
2021/09/12 03:10:43;;;;;;;3.33;3.13;;;23.10;38.80;;;;;;4934890;29;20860;-68
2021/09/12 03:13:08;;;;;;;3.60;3.40;;;23.10;38.80;;;;;;4934920;29;20642;-67
2021/09/12 03:15:33;;;;;;;3.90;3.63;;;23.00;38.70;;;;;;4934843;29;20227;-68
2021/09/12 03:17:59;;;;;;;3.70;3.40;;;23.00;38.70;;;;;;4934914;29;20172;-67
2021/09/12 03:20:25;;;;;;;3.70;3.50;;;23.00;38.70;;;;;;4934592;29;20180;-68
2021/09/12 03:22:50;;;;;;;3.87;3.50;;;23.00;38.70;;;;;;4934631;29;20216;-67
2021/09/12 03:25:15;;;;;;;3.63;3.33;;;23.10;38.60;;;;;;4934828;29;20203;-68
2021/09/12 03:27:41;;;;;;;3.30;3.10;;;23.00;38.50;;;;;;4934731;29;20199;-68
2021/09/12 03:30:07;;;;;;;3.80;3.50;;;23.00;38.40;;;;;;4934414;29;20251;-67
2021/09/12 03:32:33;;;;;;;3.30;3.10;;;23.00;38.30;;;;;;4934551;29;20198;-68
2021/09/12 03:34:59;;;;;;;3.23;3.03;;;23.00;38.30;;;;;;4934755;29;20416;-68
2021/09/12 03:37:24;;;;;;;4.20;3.27;;;23.00;38.20;;;;;;4934612;29;20239;-68
2021/09/12 03:39:50;;;;;;;2.80;2.70;;;23.00;38.30;;;;;;4934521;29;20275;-68
2021/09/12 03:42:15;;;;;;;3.57;3.27;;;23.00;38.90;;;;;;4934553;29;20649;-67
2021/09/12 03:44:41;;;;;;;3.43;3.20;;;23.00;38.20;;;;;;4934494;29;20524;-68
2021/09/12 03:47:06;;;;;;;3.47;3.20;;;23.00;38.20;;;;;;4934632;29;20569;-68
2021/09/12 03:49:32;;;;;;;3.90;3.60;;;23.00;38.30;;;;;;4935669;29;20172;-67
2021/09/12 03:51:58;;;;;;;4.03;3.73;;;23.00;38.20;;;;;;4938356;29;20192;-68
2021/09/12 03:54:23;;;;;;;3.20;3.00;;;23.00;38.30;;;;;;4938519;29;20183;-68
2021/09/12 03:56:49;;;;;;;3.80;3.53;;;23.00;38.20;;;;;;4938352;29;20416;-68
2021/09/12 03:59:14;;;;;;;3.70;3.50;;;23.00;38.10;;;;;;4938499;29;20180;-67
2021/09/12 04:01:40;;;;;;;3.80;3.60;;;23.00;38.10;;;;;;4938133;29;20310;-67
2021/09/12 04:04:06;;;;;;;3.70;3.50;;;23.00;38.00;;;;;;4938235;29;20171;-68
2021/09/12 04:06:31;;;;;;;3.60;3.40;;;23.00;37.90;;;;;;4938410;29;20194;-68
2021/09/12 04:08:57;;;;;;;3.30;3.13;;;23.00;37.90;;;;;;4938051;29;20538;-68
2021/09/12 04:11:23;;;;;;;3.30;3.10;;;23.00;37.80;;;;;;4938216;29;20199;-67
2021/09/12 04:13:48;;;;;;;3.40;3.20;;;23.00;37.80;;;;;;4938045;29;20184;-67
2021/09/12 04:16:14;;;;;;;3.33;3.03;;;23.00;37.80;;;;;;4938127;29;20575;-67
2021/09/12 04:18:40;;;;;;;3.80;3.50;;;22.90;37.70;;;;;;4937819;29;20184;-68
2021/09/12 04:21:05;;;;;;;3.33;3.13;;;23.00;37.80;;;;;;4938137;29;20455;-68
2021/09/12 04:23:31;;;;;;;3.40;3.20;;;22.90;37.70;;;;;;4937788;29;20188;-68
2021/09/12 04:25:56;;;;;;;3.50;3.30;;;22.90;37.80;;;;;;4937987;29;20227;-67
2021/09/12 04:28:22;;;;;;;3.30;3.10;;;22.90;37.80;;;;;;4937460;29;20619;-67
2021/09/12 04:30:47;;;;;;;4.33;3.00;;;22.90;37.90;;;;;;4937842;29;20231;-68
2021/09/12 04:33:13;;;;;;;3.10;2.90;;;22.90;38.00;;;;;;4937767;29;20650;-68
2021/09/12 04:35:39;;;;;;;3.27;3.07;;;22.90;38.00;;;;;;4937694;29;20635;-67
2021/09/12 04:38:05;;;;;;;3.37;3.07;;;22.90;38.10;;;;;;4937673;29;20270;-67
2021/09/12 04:40:31;;;;;;;3.33;3.13;;;22.90;38.10;;;;;;4937426;29;20218;-67
2021/09/12 04:42:56;;;;;;;4.03;3.73;;;22.90;38.50;;;;;;4937488;29;20213;-68
2021/09/12 04:45:22;;;;;;;3.50;3.30;;;22.90;38.30;;;;;;4937377;29;20412;-68
2021/09/12 04:47:48;;;;;;;3.47;3.17;;;22.90;38.30;;;;;;4936085;29;20180;-68
2021/09/12 04:50:13;;;;;;;3.27;3.07;;;22.90;38.30;;;;;;4937007;29;20247;-68
2021/09/12 04:52:39;;;;;;;3.13;2.93;;;22.90;38.20;;;;;;4937433;29;20187;-67
2021/09/12 04:55:05;;;;;;;3.30;3.10;;;22.90;38.30;;;;;;4937288;29;20192;-68
2021/09/12 04:57:30;;;;;;;3.60;3.30;;;22.90;38.40;;;;;;4937313;29;20427;-67
2021/09/12 04:59:56;;;;;;;3.80;3.37;;;22.90;38.40;;;;;;4951543;28;20473;-67
2021/09/12 05:02:21;;;;;;;3.83;3.53;;;22.90;38.40;;;;;;4954897;28;20215;-67
2021/09/12 05:04:47;;;;;;;3.57;3.37;;;22.90;38.40;;;;;;4955982;28;20216;-68
2021/09/12 05:07:12;;;;;;;3.23;3.03;;;22.90;38.50;;;;;;4956909;28;20175;-67
2021/09/12 05:09:42;;;;;;;3.90;3.60;;;22.90;38.80;;;;;;4956124;28;20230;-67
2021/09/12 05:12:08;;;;;;;4.33;3.70;;;22.90;39.10;;;;;;4971078;28;20203;-67
2021/09/12 05:14:33;;;;;;;4.00;3.70;;;22.90;39.00;;;;;;4955957;28;20419;-67
2021/09/12 05:16:59;;;;;;;4.03;3.63;;;22.90;38.80;;;;;;4956103;28;20190;-68
2021/09/12 05:19:24;;;;;;;4.13;3.80;;;23.00;38.80;;;;;;4955892;28;20182;-68
2021/09/12 05:21:50;;;;;;;3.90;3.70;;;22.90;38.60;;;;;;4955747;28;20662;-68
2021/09/12 05:24:15;;;;;;;4.70;4.23;;;22.90;38.60;;;;;;4955926;28;20195;-68
2021/09/12 05:26:41;;;;;;;4.20;3.90;;;22.90;38.50;;;;;;4955705;28;20179;-68
2021/09/12 05:29:06;;;;;;;7.10;4.30;;;22.90;38.40;;;;;;4954516;28;20522;-72
2021/09/12 05:31:32;;;;;;;5.67;4.17;;;22.90;38.30;;;;;;4951397;28;20218;-70
2021/09/12 05:33:58;;;;;;;4.57;4.07;;;22.90;38.30;;;;;;4945482;28;20648;-73
2021/09/12 05:36:23;;;;;;;4.90;4.17;;;22.90;38.20;;;;;;4936398;29;20180;-72
2021/09/12 05:38:49;;;;;;;6.53;4.10;;;22.90;38.20;;;;;;4936162;29;20172;-71
2021/09/12 05:41:15;;;;;;;5.57;4.10;;;22.90;38.00;;;;;;4935797;29;20207;-70
2021/09/12 05:43:41;;;;;;;4.50;4.10;;;22.90;38.00;;;;;;4936172;29;20903;-71
2021/09/12 05:46:06;;;;;;;4.77;4.30;;;22.90;38.10;;;;;;4935687;29;20199;-69
2021/09/12 05:48:32;;;;;;;4.17;3.80;;;22.90;38.00;;;;;;4936185;29;20187;-71
2021/09/12 05:50:57;;;;;;;4.10;3.70;;;22.90;38.00;;;;;;4936143;29;20576;-70
2021/09/12 05:53:24;;;;;;;5.43;4.20;;;22.90;38.00;;;;;;4935822;29;20223;-69
2021/09/12 05:55:50;;;;;;;3.77;3.57;;;22.90;37.90;;;;;;4936225;29;20553;-68
2021/09/12 05:58:15;;;;;;;3.80;3.50;;;22.90;37.60;;;;;;4935837;29;20419;-67
2021/09/12 06:00:41;;;;;;;4.27;3.30;;;22.90;37.20;;;;;;4935447;29;20611;-68
2021/09/12 06:03:07;;;;;;;4.40;3.70;;;22.90;37.00;;;;;;4936117;29;20287;-69
2021/09/12 06:05:32;;;;;;;4.00;3.60;;;22.90;36.90;;;;;;4936215;29;20558;-69
2021/09/12 06:07:59;;;;;;;3.60;3.40;;;22.90;36.90;;;;;;4935716;29;20198;-69
2021/09/12 06:10:24;;;;;;;3.50;3.30;;;22.90;36.90;;;;;;4935756;29;20186;-68
2021/09/12 06:12:50;;;;;;;4.13;3.73;;;22.80;36.70;;;;;;4935017;29;20502;-69
2021/09/12 06:15:15;;;;;;;3.77;3.57;;;22.80;36.60;;;;;;4935589;29;20180;-69
2021/09/12 06:17:41;;;;;;;4.17;3.83;;;22.80;36.50;;;;;;4935572;29;20179;-68
2021/09/12 06:20:07;;;;;;;4.60;3.40;;;22.80;36.40;;;;;;4935517;29;20184;-68
2021/09/12 06:22:32;;;;;;;3.33;3.13;;;22.80;36.20;;;;;;4935513;29;20676;-68
2021/09/12 06:24:58;;;;;;;3.77;3.50;;;22.80;36.20;;;;;;4935627;29;20479;-68
2021/09/12 06:27:23;;;;;;;3.40;3.13;;;22.80;36.10;;;;;;4935622;29;20615;-69
2021/09/12 06:29:49;;;;;;;3.43;3.23;;;22.80;36.00;;;;;;4935294;29;20263;-68
2021/09/12 06:32:14;;;;;;;3.43;3.20;;;22.80;35.90;;;;;;4930877;29;20214;-68
2021/09/12 06:34:41;;;;;;;3.40;3.20;;;22.80;35.90;;;;;;4924124;29;20256;-69
2021/09/12 06:37:07;;;;;;;3.93;3.73;;;22.80;35.80;;;;;;4916568;29;20221;-69
2021/09/12 06:39:33;;;;;;;3.00;2.80;;;22.80;35.70;;;;;;4916266;29;20429;-68
2021/09/12 06:41:58;;;;;;;3.40;3.10;;;22.80;35.70;;;;;;4916251;29;20212;-68
2021/09/12 06:44:24;;;;;;;3.17;2.87;;;22.70;35.50;;;;;;4916525;29;20512;-68
2021/09/12 06:46:50;;;;;;;4.90;2.97;;;22.70;35.40;;;;;;4920361;29;20616;-68
2021/09/12 06:49:15;;;;;;;4.43;3.40;;;22.70;35.40;;;;;;4933335;29;20180;-69
2021/09/12 06:51:41;;;;;;;3.27;2.97;;;22.70;35.50;;;;;;4935011;29;20204;-69
2021/09/12 06:54:06;;;;;;;3.87;3.53;;;22.70;35.60;;;;;;4935447;29;20210;-69
2021/09/12 06:56:32;;;;;;;3.23;3.00;;;22.70;35.60;;;;;;4935342;29;20265;-68
2021/09/12 06:58:58;;;;;;;4.00;3.63;;;22.70;35.60;;;;;;4935069;29;20707;-68
2021/09/12 07:01:23;;;;;;;4.37;3.07;;;22.70;35.70;;;;;;4935099;29;20234;-69
2021/09/12 07:03:49;;;;;;;5.73;3.17;;;22.70;35.70;;;;;;4935271;29;20247;-69
2021/09/12 07:06:16;;;;;;;3.70;3.17;;;22.70;35.90;;;;;;4935391;29;20214;-68
2021/09/12 07:08:41;;;;;;;3.40;3.10;;;22.70;36.10;;;;;;4935166;29;20415;-69
2021/09/12 07:11:12;;;;;;;4.30;4.00;;;22.70;36.30;;;;;;4934985;29;20219;-68
2021/09/12 07:13:38;;;;;;;5.40;3.17;;;22.70;36.50;;;;;;4935371;29;20184;-68
2021/09/12 07:16:04;;;;;;;3.90;2.90;;;22.70;36.60;;;;;;4935046;29;20411;-69
2021/09/12 07:18:29;;;;;;;4.13;3.60;;;22.70;36.70;;;;;;4934958;29;20281;-68
2021/09/12 07:20:55;;;;;;;4.53;3.70;;;22.70;36.90;;;;;;4934781;29;20218;-68
2021/09/12 07:23:20;;;;;;;3.50;3.20;;;22.70;37.10;;;;;;4932572;29;20243;-68
2021/09/12 07:25:46;;;;;;;3.30;3.10;;;22.70;37.30;;;;;;4925396;29;20220;-68
2021/09/12 07:28:11;;;;;;;3.33;3.13;;;22.70;37.50;;;;;;4922548;29;20553;-68
2021/09/12 07:30:37;;;;;;;3.60;3.40;;;22.70;37.50;;;;;;4934348;29;20196;-68
2021/09/12 07:33:02;;;;;;;3.70;3.40;;;22.70;37.40;;;;;;4934646;29;20185;-68
2021/09/12 07:35:28;;;;;;;3.97;3.57;;;22.70;37.40;;;;;;4934622;29;20183;-69
2021/09/12 07:37:53;;;;;;;2.93;2.73;;;22.70;37.40;;;;;;4934727;29;20658;-69
2021/09/12 07:40:19;;;;;;;3.53;3.20;;;22.70;37.40;;;;;;4934421;29;20256;-68
2021/09/12 07:42:46;;;;;;;3.60;3.30;;;22.70;37.30;;;;;;4934637;29;20255;-68
2021/09/12 07:45:12;;;;;;;6.80;3.53;;;22.70;37.30;;;;;;4934656;29;20640;-68
2021/09/12 07:47:38;;;;;;;4.00;3.50;;;22.70;37.30;;;;;;4924117;29;20416;-68
2021/09/12 07:50:04;;;;;;;3.40;3.20;;;22.70;37.40;;;;;;4922237;29;20598;-69
2021/09/12 07:52:29;;;;;;;5.60;3.83;;;22.70;37.30;;;;;;4927441;29;20214;-68
2021/09/12 07:54:55;;;;;;;6.47;3.67;;;22.70;37.40;;;;;;4934491;29;20466;-68
2021/09/12 07:57:20;;;;;;;4.10;3.73;;;22.70;37.30;;;;;;4934658;29;20239;-68
2021/09/12 07:59:46;;;;;;;4.63;3.67;;;22.70;37.30;;;;;;4934236;29;20172;-69
2021/09/12 08:02:11;;;;;;;4.00;3.70;;;22.70;37.20;;;;;;4931328;29;20672;-68
2021/09/12 08:04:37;;;;;;;5.33;3.70;;;22.70;37.20;;;;;;4931327;29;20187;-69
2021/09/12 08:07:02;;;;;;;3.60;3.30;;;22.70;37.20;;;;;;4934663;29;20176;-69
2021/09/12 08:09:29;;;;;;;3.50;3.20;;;22.70;37.20;;;;;;4934175;29;20180;-68
2021/09/12 08:11:55;;;;;;;3.70;3.40;;;22.70;37.20;;;;;;4934406;29;20204;-68
2021/09/12 08:14:20;;;;;;;3.83;3.53;;;22.70;37.20;;;;;;4934468;29;20426;-68
2021/09/12 08:16:46;;;;;;;3.63;3.37;;;22.70;37.20;;;;;;4934258;29;20187;-68
2021/09/12 08:19:12;;;;;;;4.23;3.83;;;22.70;37.20;;;;;;4930887;29;20271;-68
2021/09/12 08:21:37;;;;;;;3.70;3.50;;;22.70;37.20;;;;;;4925116;29;20239;-69
2021/09/12 08:24:05;;;;;;;3.70;3.40;;;22.70;37.20;;;;;;4928066;29;20199;-68
2021/09/12 08:26:31;;;;;;;3.50;3.23;;;22.70;37.10;;;;;;4923899;29;20184;-68
2021/09/12 08:28:56;;;;;;;3.47;3.27;;;22.70;37.70;;;;;;4922799;29;20931;-68
2021/09/12 08:31:22;;;;;;;3.60;3.40;;;22.70;37.00;;;;;;4924462;29;20444;-68
2021/09/12 08:33:47;;;;;;;3.90;3.70;;;22.70;37.00;;;;;;4915241;29;20173;-69
2021/09/12 08:36:13;;;;;;;4.83;3.80;;;22.70;37.00;;;;;;4917396;29;20211;-68
2021/09/12 08:38:38;;;;;;;4.00;3.77;;;22.70;36.90;;;;;;4918520;29;20195;-69
2021/09/12 08:41:04;;;;;;;3.60;3.40;;;22.70;37.00;;;;;;4924966;29;20215;-68
2021/09/12 08:43:30;;;;;;;4.53;3.30;;;22.70;37.00;;;;;;4938015;28;20283;-68
2021/09/12 08:45:56;;;;;;;4.50;4.10;;;22.60;36.90;;;;;;4937883;29;20172;-68
2021/09/12 08:48:21;;;;;;;3.80;3.60;;;22.70;37.10;;;;;;4937366;29;20419;-70
2021/09/12 08:50:47;;;;;;;3.60;3.40;;;22.70;37.00;;;;;;4937473;29;20192;-68
2021/09/12 08:53:12;;;;;;;5.77;3.70;;;22.70;37.00;;;;;;4937855;29;20187;-68
2021/09/12 08:55:38;;;;;;;4.27;3.80;;;22.70;37.10;;;;;;4937744;29;20191;-68
2021/09/12 08:58:04;;;;;;;3.87;3.67;;;22.70;37.10;;;;;;4937859;29;20172;-68
2021/09/12 09:00:30;;;;;;;3.93;3.63;;;22.70;37.10;;;;;;4937113;28;20587;-68
2021/09/12 09:03:03;;;;;;;3.80;3.60;;;22.70;37.10;;;;;;4937247;29;20460;-68
2021/09/12 09:05:34;;;;;;;3.77;3.47;;;22.70;37.20;;;;;;4936945;29;20848;-67
2021/09/12 09:08:04;;;;;;;3.97;3.47;;;22.70;36.90;;;;;;4937111;29;20408;-67
2021/09/12 09:10:53;;;;;;;3.90;3.60;;;22.70;36.80;;;;;;4936564;29;20502;-68
2021/09/12 09:13:36;;;;;;;3.70;3.47;;;22.70;36.50;;;;;;4928379;29;20852;-68
2021/09/12 09:16:09;;;;;;;3.30;3.10;;;22.70;35.90;;;;;;4930858;29;20515;-68
2021/09/12 09:18:40;;;;;;;3.90;3.60;;;22.80;35.70;;;;;;4935205;29;20408;-68
2021/09/12 09:21:27;;;;;;;3.70;3.40;;;22.80;35.30;;;;;;4935249;29;20464;-67
2021/09/12 09:24:22;;;;;;;3.57;3.20;;;22.70;35.20;;;;;;4935094;29;20472;-68
2021/09/12 09:26:59;;;;;;;3.90;3.60;;;22.80;35.40;;;;;;4935241;29;20471;-67
2021/09/12 09:29:26;;;;;;;3.57;3.37;;;22.80;36.50;;;;;;4935215;29;20407;-69
2021/09/12 09:32:05;;;;;;;3.53;3.23;;;22.90;36.00;;;;;;4934649;29;20440;-66
2021/09/12 09:34:30;;;;;;;3.73;3.53;;;22.90;35.70;;;;;;4934784;29;20416;-68
2021/09/12 09:37:10;;;;;;;3.33;3.13;;;22.90;35.70;;;;;;4934189;29;20903;-67
2021/09/12 09:39:37;;;;;;;3.27;3.07;;;22.90;35.50;;;;;;4934720;29;20183;-66
2021/09/12 09:42:03;;;;;;;4.93;3.20;;;23.00;35.20;;;;;;4934955;29;20672;-69
2021/09/12 09:44:28;;;;;;;2.87;2.67;;;23.00;34.70;;;;;;4934575;29;20495;-66
2021/09/12 09:46:54;;;;;;;2.90;2.70;;;23.00;34.00;;;;;;4933716;29;20420;-65
2021/09/12 09:49:23;;;;;;;3.20;3.00;;;23.00;34.00;;;;;;4934277;29;20176;-65
2021/09/12 09:52:00;;;;;;;2.93;2.50;;;23.00;33.80;;;;;;4934342;29;20206;-66
2021/09/12 09:54:29;;;;;;;2.87;2.70;;;23.10;33.40;;;;;;4934648;29;21112;-66
2021/09/12 09:56:55;;;;;;;3.20;3.00;;;23.20;33.50;;;;;;4935039;29;20918;-68
2021/09/12 09:59:23;;;;;;;3.20;2.87;;;23.20;33.50;;;;;;4933777;29;20447;-66
2021/09/12 10:01:51;;;;;;;2.77;2.60;;;23.30;33.20;;;;;;4933963;29;20538;-65
2021/09/12 10:04:21;;;;;;;2.70;2.50;;;23.40;32.90;;;;;;4934288;29;20440;-66
2021/09/12 10:06:49;;;;;;;3.57;3.20;;;23.40;32.80;;;;;;4934103;29;20467;-64
2021/09/12 10:09:16;;;;;;;3.90;2.90;;;23.50;33.10;;;;;;4933922;29;20430;-64
2021/09/12 10:11:47;;;;;;;2.77;2.60;;;23.50;33.60;;;;;;4934127;29;20440;-67
2021/09/12 10:14:18;;;;;;;3.13;2.93;;;23.60;33.50;;;;;;4933704;29;20416;-65
2021/09/12 10:16:47;;;;;;;3.20;2.90;;;23.60;33.50;;;;;;4934172;29;20444;-65
2021/09/12 10:19:34;;;;;;;2.50;2.40;;;23.70;33.40;;;;;;4933982;29;20423;-67
2021/09/12 10:22:06;;;;;;;3.20;3.00;;;23.70;33.10;;;;;;4933980;29;20542;-66
2021/09/12 10:24:32;;;;;;;2.40;2.30;;;23.70;33.10;;;;;;4933769;29;20416;-65
2021/09/12 10:26:58;;;;;;;2.90;2.70;;;23.70;33.10;;;;;;4933863;29;20563;-65
2021/09/12 10:29:43;;;;;;;2.90;2.63;;;23.70;33.10;;;;;;4933369;29;20467;-65
2021/09/12 10:32:33;;;;;;;2.40;2.30;;;23.70;32.60;;;;;;4933908;29;20200;-65
2021/09/12 10:35:13;;;;;;;2.97;2.77;;;23.70;33.00;;;;;;4933688;29;20507;-65
2021/09/12 10:37:39;;;;;;;3.70;2.67;;;23.70;33.10;;;;;;4935626;29;20418;-67
2021/09/12 10:40:05;;;;;;;2.47;2.37;;;23.70;33.10;;;;;;4935137;29;20419;-64
2021/09/12 10:42:44;;;;;;;2.87;2.73;;;23.70;33.00;;;;;;4935490;29;20218;-50
2021/09/12 10:45:25;;;;;;;2.73;2.53;;;23.70;33.80;;;;;;4935286;29;20412;-50
2021/09/12 10:47:51;;;;;;;4.93;3.13;;;23.60;33.40;;;;;;4935265;29;20412;-48
2021/09/12 10:50:40;;;;;;;3.70;2.90;;;23.60;33.70;;;;;;4934966;29;20903;-53
2021/09/12 10:53:06;;;;;;;2.43;2.33;;;23.60;33.90;;;;;;4932438;29;20463;-53
2021/09/12 10:56:01;;;;;;;3.10;2.43;;;23.50;34.00;;;;;;4935119;29;20450;-51
2021/09/12 10:58:28;;;;;;;3.20;2.90;;;23.50;34.20;;;;;;4934988;28;20212;-51
2021/09/12 11:00:58;;;;;;;3.53;3.27;;;23.40;33.90;;;;;;4933475;29;20506;-55
2021/09/12 11:03:25;;;;;;;3.17;2.97;;;23.40;34.20;;;;;;4935116;29;20986;-50
2021/09/12 11:05:51;;;;;;;2.80;2.60;;;23.40;34.30;;;;;;4934866;29;20419;-49
2021/09/12 11:08:17;;;;;;;2.83;2.73;;;23.30;34.20;;;;;;4934842;29;20785;-52
2021/09/12 11:10:50;;;;;;;3.53;3.20;;;23.30;34.30;;;;;;4934578;29;20427;-50
2021/09/12 11:13:23;;;;;;;2.50;2.40;;;23.30;34.20;;;;;;4935135;28;20441;-49
2021/09/12 11:16:03;;;;;;;3.30;3.10;;;23.30;34.20;;;;;;4928552;28;20420;-56
2021/09/12 11:19:00;;;;;;;3.70;3.00;;;23.30;34.20;;;;;;4934709;29;20434;-52
2021/09/12 11:21:50;;;;;;;2.80;2.70;;;23.30;34.50;;;;;;4934062;29;20468;-59
2021/09/12 11:24:22;;;;;;;3.07;2.87;;;23.30;33.60;;;;;;4931040;29;20427;-56
2021/09/12 11:27:02;;;;;;;3.37;3.17;;;23.30;33.60;;;;;;4934649;29;20499;-52
2021/09/12 11:29:36;;;;;;;3.17;2.93;;;23.40;33.80;;;;;;4934364;29;20516;-61
2021/09/12 11:32:05;;;;;;;2.90;2.70;;;23.40;33.70;;;;;;4934644;29;20962;-61
2021/09/12 11:34:32;;;;;;;3.27;2.97;;;23.40;32.80;;;;;;4934451;29;20419;-50
2021/09/12 11:37:09;;;;;;;3.30;2.80;;;23.50;33.10;;;;;;4934298;29;20474;-57
2021/09/12 11:39:38;;;;;;;3.13;2.90;;;23.50;33.60;;;;;;4934238;29;20420;-53
2021/09/12 11:42:06;;;;;;;3.03;2.93;;;23.50;33.60;;;;;;4934390;29;20491;-53
2021/09/12 11:44:42;;;;;;;5.00;4.23;;;23.50;33.60;;;;;;4933953;29;20415;-54
2021/09/12 11:47:10;;;;;;;3.60;3.30;;;23.50;33.00;;;;;;4934707;29;20412;-52
2021/09/12 11:49:36;;;;;;;3.40;3.10;;;23.50;33.30;;;;;;4943480;29;20411;-55
2021/09/12 11:52:02;;;;;;;2.93;2.73;;;23.50;33.60;;;;;;4953239;28;20438;-51
2021/09/12 11:54:35;;;;;;;2.57;2.40;;;23.50;33.70;;;;;;4946886;28;20977;-54
2021/09/12 11:57:02;;;;;;;2.60;2.40;;;23.50;33.80;;;;;;4934568;29;20833;-54
2021/09/12 11:59:42;;;;;;;3.77;2.70;;;23.50;33.80;;;;;;4937483;29;20427;-52
2021/09/12 12:02:16;;;;;;;3.20;3.00;;;23.50;33.90;;;;;;4953152;28;20565;-58
2021/09/12 12:04:44;;;;;;;3.07;2.77;;;23.60;34.00;;;;;;4953292;28;20399;-52
2021/09/12 12:07:10;;;;;;;3.23;2.83;;;23.50;34.00;;;;;;4953809;28;20411;-55
2021/09/12 12:09:41;;;;;;;6.70;2.97;;;23.60;34.00;;;;;;4953135;28;20421;-52
2021/09/12 12:12:08;;;;;;;3.40;3.10;;;23.60;34.00;;;;;;4946896;28;20683;-53
2021/09/12 12:14:51;;;;;;;3.70;3.33;;;23.60;34.20;;;;;;4928110;29;20431;-57
2021/09/12 12:17:21;;;;;;;4.00;3.70;;;23.60;34.20;;;;;;4936695;29;20419;-57
2021/09/12 12:19:47;;;;;;;3.50;3.20;;;23.60;34.30;;;;;;4935998;29;20419;-54
2021/09/12 12:22:13;;;;;;;4.07;3.70;;;23.60;34.40;;;;;;4936086;29;20467;-52
2021/09/12 12:24:41;;;;;;;3.80;3.50;;;23.60;34.40;;;;;;4936137;29;20499;-52
2021/09/12 12:27:10;;;;;;;4.00;3.13;;;23.60;34.60;;;;;;4936204;29;20502;-54
2021/09/12 12:29:37;;;;;;;3.67;3.38;;;23.60;34.60;;;;;;4951525;29;20498;-52
2021/09/12 12:32:07;;;;;;;8.87;4.17;;;23.60;34.70;;;;;;4955833;28;20214;-48
2021/09/12 12:34:52;;;;;;;4.27;3.60;;;23.60;34.60;;;;;;4955445;28;20419;-51
2021/09/12 12:37:34;;;;;;;4.50;3.60;;;23.60;34.70;;;;;;4956473;28;20426;-50
2021/09/12 12:40:06;;;;;;;11.87;4.30;;;23.60;34.80;;;;;;4956570;28;20418;-50
2021/09/12 12:42:39;;;;;;;3.93;3.63;;;23.60;34.90;;;;;;4956985;28;20474;-52
2021/09/12 12:45:25;;;;;;;3.77;3.47;;;23.60;35.80;;;;;;4956844;28;20469;-49
2021/09/12 12:47:54;;;;;;;3.50;3.30;;;23.60;35.10;;;;;;4956421;28;20411;-49
2021/09/12 12:50:31;;;;;;;3.13;2.93;;;23.60;35.10;;;;;;4956327;28;20798;-51